createdAt,value
2018-07-26T00:00:41.812Z,15.10
2018-07-26T00:01:41.790Z,10.40
2018-07-26T00:02:41.747Z,11.20
2018-07-26T00:03:41.735Z,17.70
2018-07-26T00:04:41.694Z,16.20
2018-07-26T00:05:41.683Z,9.40
2018-07-26T00:06:41.823Z,15.30
2018-07-26T00:07:41.609Z,19.00
2018-07-26T00:08:41.571Z,16.90
2018-07-26T00:09:41.532Z,16.20
2018-07-26T00:10:41.509Z,17.10
2018-07-26T00:11:41.485Z,12.70
2018-07-26T00:12:41.632Z,14.70
2018-07-26T00:13:41.414Z,19.30
2018-07-26T00:14:41.401Z,10.40
2018-07-26T00:15:41.352Z,20.50
2018-07-26T00:16:41.315Z,22.20
2018-07-26T00:17:41.355Z,23.60
2018-07-26T00:18:41.280Z,17.70
2018-07-26T00:19:41.226Z,21.40
2018-07-26T00:20:41.187Z,10.80
2018-07-26T00:21:41.236Z,20.00
2018-07-26T00:22:41.131Z,19.70
2018-07-26T00:23:41.099Z,20.50
2018-07-26T00:24:41.068Z,27.00
2018-07-26T00:25:41.035Z,19.60
2018-07-26T00:26:41.007Z,26.30
2018-07-26T00:28:40.939Z,19.70
2018-07-26T00:29:40.904Z,21.50
2018-07-26T00:30:40.914Z,22.40
2018-07-26T00:31:40.851Z,24.30
2018-07-26T00:32:40.820Z,20.80
2018-07-26T00:33:40.807Z,21.80
2018-07-26T00:34:40.753Z,12.20
2018-07-26T00:35:40.930Z,22.70
2018-07-26T00:36:40.709Z,22.90
2018-07-26T00:37:40.868Z,26.30
2018-07-26T00:38:41.124Z,16.50
2018-07-26T00:39:40.589Z,16.30
2018-07-26T00:40:40.557Z,19.30
2018-07-26T00:41:40.533Z,15.30
2018-07-26T00:42:40.499Z,19.10
2018-07-26T00:43:40.469Z,13.60
2018-07-26T00:44:40.608Z,15.90
2018-07-26T00:45:40.408Z,21.30
2018-07-26T00:46:40.713Z,24.00
2018-07-26T00:47:40.348Z,14.20
2018-07-26T00:48:40.334Z,12.30
2018-07-26T00:49:41.535Z,8.10
2018-07-26T00:50:40.234Z,16.00
2018-07-26T00:51:40.226Z,12.70
2018-07-26T00:52:40.195Z,13.20
2018-07-26T00:53:40.158Z,10.60
2018-07-26T00:54:40.113Z,18.70
2018-07-26T00:55:40.113Z,10.70
2018-07-26T00:56:40.082Z,10.30
2018-07-26T00:57:40.232Z,18.70
2018-07-26T00:58:40.007Z,17.50
2018-07-26T00:59:39.950Z,15.20
2018-07-26T01:00:39.935Z,14.10
2018-07-26T01:01:39.895Z,21.80
2018-07-26T01:02:39.891Z,12.50
2018-07-26T01:03:39.850Z,15.90
2018-07-26T01:04:39.813Z,16.00
2018-07-26T01:05:40.199Z,22.00
2018-07-26T01:06:39.752Z,14.80
2018-07-26T01:07:39.711Z,19.10
2018-07-26T01:08:39.812Z,23.30
2018-07-26T01:09:58.881Z,14.90
2018-07-26T01:10:39.617Z,17.80
2018-07-26T01:11:39.935Z,14.60
2018-07-26T01:12:39.547Z,12.80
2018-07-26T01:13:39.520Z,23.80
2018-07-26T01:14:39.495Z,22.60
2018-07-26T01:15:39.483Z,23.30
2018-07-26T01:16:39.414Z,18.50
2018-07-26T01:17:39.590Z,17.30
2018-07-26T01:18:39.378Z,17.30
2018-07-26T01:19:39.334Z,15.40
2018-07-26T01:20:39.313Z,16.20
2018-07-26T01:21:39.266Z,48.60
2018-07-26T01:22:39.239Z,140.10
2018-07-26T01:23:39.224Z,278.30
2018-07-26T01:24:39.175Z,226.30
2018-07-26T01:25:39.233Z,143.40
2018-07-26T01:26:39.109Z,77.80
2018-07-26T01:27:39.107Z,74.50
2018-07-26T01:28:39.068Z,69.80
2018-07-26T01:29:39.019Z,67.40
2018-07-26T01:30:38.984Z,76.70
2018-07-26T01:31:38.965Z,43.00
2018-07-26T01:32:38.913Z,34.20
2018-07-26T01:33:38.885Z,33.40
2018-07-26T01:34:38.865Z,26.10
2018-07-26T01:35:38.824Z,33.60
2018-07-26T01:36:38.793Z,32.00
2018-07-26T01:37:38.778Z,19.20
2018-07-26T01:38:38.735Z,20.80
2018-07-26T01:39:38.693Z,16.50
2018-07-26T01:40:38.655Z,15.20
2018-07-26T01:41:38.632Z,14.40
2018-07-26T01:42:38.592Z,16.80
2018-07-26T01:43:38.560Z,23.20
2018-07-26T01:44:38.532Z,20.10
2018-07-26T01:45:38.509Z,13.70
2018-07-26T01:46:38.470Z,23.30
2018-07-26T01:47:38.440Z,13.60
2018-07-26T01:48:38.423Z,14.90
2018-07-26T01:49:38.409Z,19.70
2018-07-26T01:50:38.389Z,19.30
2018-07-26T01:51:38.296Z,16.40
2018-07-26T01:52:38.303Z,13.50
2018-07-26T01:53:38.248Z,18.90
2018-07-26T01:54:38.207Z,15.90
2018-07-26T01:55:38.177Z,19.90
2018-07-26T01:56:38.148Z,24.50
2018-07-26T01:57:38.128Z,25.70
2018-07-26T01:58:38.080Z,23.10
2018-07-26T01:59:38.048Z,19.60
2018-07-26T02:00:38.028Z,17.70
2018-07-26T02:01:38.007Z,28.40
2018-07-26T02:02:37.950Z,25.10
2018-07-26T02:03:37.921Z,33.80
2018-07-26T02:04:37.905Z,31.30
2018-07-26T02:05:37.858Z,23.30
2018-07-26T02:06:37.852Z,70.00
2018-07-26T02:07:37.798Z,49.30
2018-07-26T02:08:37.761Z,64.30
2018-07-26T02:09:37.881Z,57.00
2018-07-26T02:10:37.706Z,45.60
2018-07-26T02:11:37.664Z,41.60
2018-07-26T02:12:37.629Z,31.90
2018-07-26T02:13:37.601Z,25.30
2018-07-26T02:14:37.565Z,23.90
2018-07-26T02:15:37.535Z,18.80
2018-07-26T02:16:37.511Z,41.20
2018-07-26T02:17:37.491Z,27.80
2018-07-26T02:18:37.437Z,46.00
2018-07-26T02:19:37.409Z,36.00
2018-07-26T02:20:37.780Z,32.90
2018-07-26T02:21:37.360Z,30.00
2018-07-26T02:22:37.316Z,27.30
2018-07-26T02:23:37.290Z,36.50
2018-07-26T02:24:37.252Z,33.40
2018-07-26T02:25:37.218Z,22.60
2018-07-26T02:26:37.219Z,30.60
2018-07-26T02:27:37.164Z,21.70
2018-07-26T02:28:37.116Z,16.80
2018-07-26T02:29:37.114Z,16.50
2018-07-26T02:30:37.059Z,15.80
2018-07-26T02:31:37.036Z,26.70
2018-07-26T02:32:36.996Z,20.20
2018-07-26T02:33:36.970Z,19.70
2018-07-26T02:34:36.920Z,17.80
2018-07-26T02:35:36.903Z,30.90
2018-07-26T02:36:37.262Z,18.20
2018-07-26T02:37:36.852Z,18.20
2018-07-26T02:38:36.797Z,20.80
2018-07-26T02:39:36.766Z,23.00
2018-07-26T02:40:36.731Z,20.70
2018-07-26T02:41:36.694Z,20.00
2018-07-26T02:42:36.715Z,21.00
2018-07-26T02:43:36.687Z,18.70
2018-07-26T02:44:36.601Z,20.30
2018-07-26T02:45:36.569Z,15.70
2018-07-26T02:46:36.534Z,22.00
2018-07-26T02:47:36.655Z,21.50
2018-07-26T02:48:36.467Z,16.70
2018-07-26T02:49:36.446Z,21.00
2018-07-26T02:50:36.408Z,20.40
2018-07-26T02:51:36.377Z,25.90
2018-07-26T02:52:36.349Z,17.20
2018-07-26T02:53:36.311Z,17.10
2018-07-26T02:54:36.277Z,32.10
2018-07-26T02:55:36.237Z,27.90
2018-07-26T02:56:36.224Z,27.60
2018-07-26T02:57:36.186Z,16.20
2018-07-26T02:58:36.148Z,17.70
2018-07-26T02:59:36.112Z,33.20
2018-07-26T03:00:36.093Z,23.20
2018-07-26T03:01:36.064Z,17.40
2018-07-26T03:02:36.019Z,17.70
2018-07-26T03:03:35.987Z,17.00
2018-07-26T03:04:35.947Z,16.20
2018-07-26T03:05:35.922Z,18.80
2018-07-26T03:06:36.004Z,12.10
2018-07-26T03:07:35.860Z,15.10
2018-07-26T03:08:36.179Z,17.00
2018-07-26T03:09:35.806Z,15.10
2018-07-26T03:10:35.769Z,14.10
2018-07-26T03:11:35.737Z,14.20
2018-07-26T03:12:35.697Z,13.30
2018-07-26T03:13:35.670Z,13.30
2018-07-26T03:14:35.634Z,11.30
2018-07-26T03:15:35.603Z,12.50
2018-07-26T03:16:35.569Z,14.20
2018-07-26T03:17:35.544Z,16.30
2018-07-26T03:18:35.506Z,12.50
2018-07-26T03:19:35.470Z,16.90
2018-07-26T03:20:35.430Z,11.50
2018-07-26T03:21:35.411Z,12.90
2018-07-26T03:22:35.388Z,8.40
2018-07-26T03:23:35.341Z,9.10
2018-07-26T03:24:35.297Z,11.70
2018-07-26T03:25:35.475Z,15.90
2018-07-26T03:26:35.242Z,13.30
2018-07-26T03:27:35.206Z,10.30
2018-07-26T03:28:35.168Z,12.10
2018-07-26T03:29:35.150Z,15.30
2018-07-26T03:30:35.111Z,11.50
2018-07-26T03:31:35.110Z,11.90
2018-07-26T03:32:35.040Z,13.00
2018-07-26T03:33:35.015Z,9.00
2018-07-26T03:34:34.988Z,12.30
2018-07-26T03:35:34.941Z,21.20
2018-07-26T03:36:34.917Z,7.70
2018-07-26T03:37:34.876Z,10.60
2018-07-26T03:38:34.853Z,6.30
2018-07-26T03:39:34.818Z,14.70
2018-07-26T03:40:34.789Z,11.80
2018-07-26T03:41:34.948Z,10.50
2018-07-26T03:42:34.729Z,8.70
2018-07-26T03:43:34.727Z,11.20
2018-07-26T03:44:34.646Z,13.50
2018-07-26T03:45:34.631Z,10.90
2018-07-26T03:46:34.609Z,8.70
2018-07-26T03:47:34.617Z,13.30
2018-07-26T03:48:34.532Z,9.30
2018-07-26T03:49:34.505Z,10.10
2018-07-26T03:50:34.460Z,10.60
2018-07-26T03:51:34.425Z,7.00
2018-07-26T03:52:34.465Z,11.40
2018-07-26T03:53:34.367Z,14.80
2018-07-26T03:54:34.325Z,9.80
2018-07-26T03:55:34.302Z,14.50
2018-07-26T03:56:34.259Z,6.80
2018-07-26T03:57:34.228Z,8.80
2018-07-26T03:58:34.192Z,10.70
2018-07-26T03:59:34.162Z,11.80
2018-07-26T04:00:34.135Z,10.00
2018-07-26T04:01:34.106Z,11.70
2018-07-26T04:02:34.071Z,10.90
2018-07-26T04:03:34.389Z,6.70
2018-07-26T04:04:33.995Z,12.50
2018-07-26T04:05:33.993Z,13.40
2018-07-26T04:06:33.937Z,8.80
2018-07-26T04:07:33.908Z,10.70
2018-07-26T04:08:33.873Z,8.80
2018-07-26T04:09:34.040Z,36.50
2018-07-26T04:10:33.831Z,65.00
2018-07-26T04:11:33.778Z,120.30
2018-07-26T04:12:33.742Z,61.40
2018-07-26T04:13:33.714Z,56.90
2018-07-26T04:14:33.671Z,53.80
2018-07-26T04:15:33.847Z,44.70
2018-07-26T04:16:33.610Z,45.80
2018-07-26T04:17:33.570Z,32.70
2018-07-26T04:18:33.539Z,26.70
2018-07-26T04:19:33.515Z,21.80
2018-07-26T04:20:33.488Z,24.30
2018-07-26T04:21:33.446Z,21.00
2018-07-26T04:22:33.424Z,12.40
2018-07-26T04:23:33.384Z,21.70
2018-07-26T04:24:33.344Z,13.60
2018-07-26T04:25:33.320Z,12.20
2018-07-26T04:26:33.292Z,9.20
2018-07-26T04:27:33.245Z,11.00
2018-07-26T04:28:33.198Z,10.40
2018-07-26T04:29:33.203Z,8.50
2018-07-26T04:30:33.142Z,12.60
2018-07-26T04:31:33.104Z,9.40
2018-07-26T04:32:33.065Z,8.00
2018-07-26T04:33:33.035Z,14.00
2018-07-26T04:34:33.014Z,9.50
2018-07-26T04:35:32.986Z,10.00
2018-07-26T04:36:32.934Z,8.00
2018-07-26T04:37:32.924Z,6.10
2018-07-26T04:38:32.879Z,5.30
2018-07-26T04:39:32.839Z,10.60
2018-07-26T04:40:32.824Z,15.30
2018-07-26T04:41:33.071Z,9.40
2018-07-26T04:42:32.743Z,14.50
2018-07-26T04:43:32.708Z,13.60
2018-07-26T04:44:32.678Z,10.30
2018-07-26T04:45:32.636Z,10.40
2018-07-26T04:46:32.608Z,6.10
2018-07-26T04:47:32.775Z,9.30
2018-07-26T04:48:32.547Z,14.90
2018-07-26T04:49:32.509Z,10.10
2018-07-26T04:50:32.474Z,7.70
2018-07-26T04:51:32.454Z,9.60
2018-07-26T04:52:32.406Z,9.80
2018-07-26T04:53:32.377Z,14.70
2018-07-26T04:54:32.401Z,9.50
2018-07-26T04:55:32.312Z,8.50
2018-07-26T04:56:32.279Z,13.20
2018-07-26T04:57:32.255Z,7.30
2018-07-26T04:58:32.216Z,12.10
2018-07-26T04:59:32.186Z,10.80
2018-07-26T05:00:32.148Z,8.90
2018-07-26T05:01:32.113Z,11.60
2018-07-26T05:02:32.082Z,16.50
2018-07-26T05:03:32.054Z,6.10
2018-07-26T05:04:32.015Z,5.20
2018-07-26T05:05:31.989Z,14.40
2018-07-26T05:06:31.958Z,9.90
2018-07-26T05:07:31.913Z,14.20
2018-07-26T05:08:31.886Z,10.70
2018-07-26T05:09:31.853Z,10.10
2018-07-26T05:10:31.813Z,9.10
2018-07-26T05:11:31.782Z,12.80
2018-07-26T05:12:31.749Z,11.60
2018-07-26T05:13:31.717Z,8.80
2018-07-26T05:14:31.698Z,7.40
2018-07-26T05:15:31.654Z,5.90
2018-07-26T05:16:31.616Z,13.60
2018-07-26T05:17:31.583Z,11.60
2018-07-26T05:18:31.774Z,10.00
2018-07-26T05:19:31.525Z,9.40
2018-07-26T05:20:31.488Z,11.70
2018-07-26T05:21:31.451Z,10.70
2018-07-26T05:22:31.423Z,13.70
2018-07-26T05:23:31.388Z,8.50
2018-07-26T05:24:31.355Z,12.60
2018-07-26T05:25:31.319Z,6.60
2018-07-26T05:26:31.288Z,12.10
2018-07-26T05:27:31.258Z,8.40
2018-07-26T05:28:31.230Z,6.60
2018-07-26T05:29:31.196Z,10.50
2018-07-26T05:30:31.161Z,12.40
2018-07-26T05:31:31.118Z,4.40
2018-07-26T05:32:31.090Z,14.20
2018-07-26T05:33:31.055Z,10.60
2018-07-26T05:34:31.020Z,8.60
2018-07-26T05:35:30.989Z,9.90
2018-07-26T05:36:30.965Z,8.30
2018-07-26T05:37:30.931Z,7.70
2018-07-26T05:38:30.895Z,9.40
2018-07-26T05:39:31.062Z,6.90
2018-07-26T05:40:30.829Z,5.60
2018-07-26T05:41:30.789Z,6.80
2018-07-26T05:42:30.766Z,5.80
2018-07-26T05:43:30.734Z,7.70
2018-07-26T05:44:30.910Z,10.40
2018-07-26T05:45:31.011Z,8.60
2018-07-26T05:46:30.624Z,5.80
2018-07-26T05:47:30.597Z,13.30
2018-07-26T05:48:30.559Z,10.60
2018-07-26T05:49:30.528Z,8.60
2018-07-26T05:50:30.502Z,12.30
2018-07-26T05:51:30.818Z,10.20
2018-07-26T05:52:30.432Z,4.20
2018-07-26T05:53:30.394Z,9.20
2018-07-26T05:54:30.359Z,5.90
2018-07-26T05:55:30.325Z,8.70
2018-07-26T05:56:30.297Z,7.40
2018-07-26T05:57:30.347Z,11.10
2018-07-26T05:58:30.223Z,12.10
2018-07-26T05:59:30.193Z,4.70
2018-07-26T06:00:30.158Z,5.90
2018-07-26T06:01:30.129Z,8.30
2018-07-26T06:02:30.097Z,12.00
2018-07-26T06:03:30.055Z,11.20
2018-07-26T06:04:30.028Z,13.10
2018-07-26T06:05:29.989Z,6.60
2018-07-26T06:06:29.959Z,9.90
2018-07-26T06:07:29.922Z,8.90
2018-07-26T06:08:29.894Z,6.30
2018-07-26T06:09:29.861Z,10.80
2018-07-26T06:10:29.823Z,8.50
2018-07-26T06:11:29.790Z,9.10
2018-07-26T06:12:29.762Z,16.30
2018-07-26T06:13:29.719Z,14.80
2018-07-26T06:14:29.693Z,8.30
2018-07-26T06:15:29.654Z,13.90
2018-07-26T06:16:29.624Z,9.70
2018-07-26T06:17:29.687Z,10.90
2018-07-26T06:18:29.577Z,8.80
2018-07-26T06:19:29.518Z,5.30
2018-07-26T06:20:29.529Z,6.30
2018-07-26T06:21:29.464Z,12.90
2018-07-26T06:22:29.636Z,8.70
2018-07-26T06:23:29.390Z,7.20
2018-07-26T06:24:29.358Z,10.80
2018-07-26T06:25:29.324Z,5.40
2018-07-26T06:26:29.288Z,7.70
2018-07-26T06:27:29.254Z,9.40
2018-07-26T06:28:29.217Z,10.70
2018-07-26T06:29:29.188Z,10.50
2018-07-26T06:30:29.163Z,7.80
2018-07-26T06:31:29.127Z,7.60
2018-07-26T06:32:29.083Z,9.50
2018-07-26T06:33:29.079Z,8.90
2018-07-26T06:34:29.020Z,7.60
2018-07-26T06:35:28.983Z,9.20
2018-07-26T06:36:28.959Z,6.70
2018-07-26T06:37:28.919Z,7.20
2018-07-26T06:38:29.038Z,5.90
2018-07-26T06:39:28.906Z,6.70
2018-07-26T06:40:28.819Z,11.60
2018-07-26T06:41:28.780Z,6.90
2018-07-26T06:42:28.755Z,11.20
2018-07-26T06:43:28.726Z,4.60
2018-07-26T06:44:28.681Z,8.50
2018-07-26T06:45:28.648Z,8.00
2018-07-26T06:46:28.631Z,16.40
2018-07-26T06:47:28.581Z,30.40
2018-07-26T06:48:28.547Z,8.30
2018-07-26T06:49:28.512Z,10.30
2018-07-26T06:51:28.454Z,12.40
2018-07-26T06:52:28.415Z,9.80
2018-07-26T06:53:28.381Z,9.40
2018-07-26T06:54:28.344Z,11.10
2018-07-26T06:55:28.336Z,14.10
2018-07-26T06:56:28.281Z,6.40
2018-07-26T06:57:28.247Z,15.70
2018-07-26T06:58:28.248Z,15.00
2018-07-26T06:59:28.180Z,16.10
2018-07-26T07:00:28.144Z,4.60
2018-07-26T07:01:28.115Z,10.00
2018-07-26T07:02:28.078Z,5.70
2018-07-26T07:03:28.058Z,13.10
2018-07-26T07:04:28.020Z,10.10
2018-07-26T07:05:27.987Z,8.30
2018-07-26T07:06:27.944Z,8.30
2018-07-26T07:07:27.912Z,6.40
2018-07-26T07:08:27.876Z,10.30
2018-07-26T07:09:27.840Z,7.60
2018-07-26T07:10:28.111Z,10.00
2018-07-26T07:11:27.778Z,8.40
2018-07-26T07:12:27.752Z,7.20
2018-07-26T07:13:27.706Z,8.20
2018-07-26T07:14:28.233Z,6.00
2018-07-26T07:15:27.662Z,7.50
2018-07-26T07:16:27.904Z,7.10
2018-07-26T07:17:27.578Z,10.90
2018-07-26T07:18:27.539Z,12.00
2018-07-26T07:19:27.505Z,10.80
2018-07-26T07:20:27.514Z,11.40
2018-07-26T07:21:27.434Z,9.00
2018-07-26T07:22:27.441Z,9.60
2018-07-26T07:23:27.371Z,35.30
2018-07-26T07:24:27.331Z,19.30
2018-07-26T07:25:27.298Z,13.10
2018-07-26T07:26:27.284Z,16.50
2018-07-26T07:27:27.229Z,27.00
2018-07-26T07:28:27.198Z,14.10
2018-07-26T07:29:27.165Z,11.10
2018-07-26T07:30:27.137Z,18.20
2018-07-26T07:31:27.099Z,8.50
2018-07-26T07:32:27.061Z,9.40
2018-07-26T07:33:27.032Z,6.40
2018-07-26T07:34:26.993Z,12.60
2018-07-26T07:35:26.969Z,14.80
2018-07-26T07:36:26.933Z,7.80
2018-07-26T07:37:27.243Z,11.70
2018-07-26T07:38:26.860Z,6.70
2018-07-26T07:39:26.828Z,10.30
2018-07-26T07:40:26.817Z,4.90
2018-07-26T07:41:26.780Z,9.20
2018-07-26T07:42:26.724Z,6.80
2018-07-26T07:43:26.716Z,8.20
2018-07-26T07:44:26.655Z,5.50
2018-07-26T07:45:26.622Z,9.80
2018-07-26T07:46:26.595Z,8.50
2018-07-26T07:47:26.594Z,7.50
2018-07-26T07:48:26.521Z,6.80
2018-07-26T07:49:26.489Z,7.20
2018-07-26T07:50:26.457Z,9.00
2018-07-26T07:51:26.416Z,5.20
2018-07-26T07:52:26.384Z,11.20
2018-07-26T07:53:26.349Z,7.50
2018-07-26T07:54:26.314Z,10.40
2018-07-26T07:55:26.281Z,7.80
2018-07-26T07:56:26.251Z,7.10
2018-07-26T07:57:26.213Z,6.90
2018-07-26T07:58:26.183Z,10.50
2018-07-26T07:59:26.184Z,8.80
2018-07-26T08:00:26.123Z,4.60
2018-07-26T08:01:26.073Z,11.50
2018-07-26T08:02:26.045Z,7.00
2018-07-26T08:03:26.006Z,7.70
2018-07-26T08:04:25.981Z,4.90
2018-07-26T08:05:26.132Z,9.90
2018-07-26T08:06:25.913Z,7.40
2018-07-26T08:07:25.870Z,8.60
2018-07-26T08:08:25.840Z,6.00
2018-07-26T08:09:25.802Z,6.70
2018-07-26T08:10:25.770Z,9.30
2018-07-26T08:11:25.732Z,8.00
2018-07-26T08:12:25.708Z,4.70
2018-07-26T08:13:25.668Z,13.60
2018-07-26T08:14:25.630Z,7.30
2018-07-26T08:15:25.597Z,7.60
2018-07-26T08:16:25.567Z,8.20
2018-07-26T08:17:25.526Z,7.10
2018-07-26T08:18:25.492Z,9.70
2018-07-26T08:19:25.466Z,3.80
2018-07-26T08:20:25.431Z,6.30
2018-07-26T08:21:25.456Z,5.70
2018-07-26T08:22:25.756Z,7.90
2018-07-26T08:23:25.328Z,6.70
2018-07-26T08:24:25.297Z,5.60
2018-07-26T08:25:25.260Z,7.50
2018-07-26T08:26:25.217Z,8.60
2018-07-26T08:27:25.191Z,10.90
2018-07-26T08:28:25.159Z,10.90
2018-07-26T08:29:25.183Z,8.70
2018-07-26T08:30:25.093Z,8.20
2018-07-26T08:31:25.060Z,8.20
2018-07-26T08:32:25.011Z,7.80
2018-07-26T08:33:24.979Z,8.30
2018-07-26T08:34:24.943Z,6.30
2018-07-26T08:35:24.909Z,11.30
2018-07-26T08:36:24.885Z,10.70
2018-07-26T08:37:24.853Z,7.50
2018-07-26T08:38:24.807Z,5.00
2018-07-26T08:39:24.775Z,9.40
2018-07-26T08:40:24.739Z,11.50
2018-07-26T08:41:24.704Z,4.60
2018-07-26T08:42:24.678Z,9.30
2018-07-26T08:43:24.638Z,9.00
2018-07-26T08:44:24.598Z,6.10
2018-07-26T08:45:24.576Z,8.10
2018-07-26T08:46:24.534Z,7.60
2018-07-26T08:47:24.496Z,5.00
2018-07-26T08:48:24.612Z,9.40
2018-07-26T08:49:24.437Z,6.50
2018-07-26T08:50:24.399Z,5.50
2018-07-26T08:51:24.364Z,8.30
2018-07-26T08:52:24.326Z,7.30
2018-07-26T08:53:24.295Z,7.80
2018-07-26T08:54:24.260Z,8.70
2018-07-26T08:55:24.223Z,5.10
2018-07-26T08:56:24.195Z,8.70
2018-07-26T08:57:24.154Z,6.30
2018-07-26T08:58:24.129Z,7.10
2018-07-26T08:59:24.084Z,7.00
2018-07-26T09:00:24.064Z,5.90
2018-07-26T09:01:24.014Z,12.10
2018-07-26T09:02:23.989Z,9.00
2018-07-26T09:03:23.946Z,7.70
2018-07-26T09:04:24.116Z,3.70
2018-07-26T09:05:23.878Z,7.50
2018-07-26T09:06:23.844Z,6.00
2018-07-26T09:07:23.815Z,7.60
2018-07-26T09:08:23.784Z,8.30
2018-07-26T09:09:23.752Z,4.40
2018-07-26T09:10:23.904Z,10.80
2018-07-26T09:11:23.709Z,8.50
2018-07-26T09:12:23.639Z,6.70
2018-07-26T09:13:23.627Z,7.20
2018-07-26T09:14:23.577Z,10.00
2018-07-26T09:15:23.538Z,5.10
2018-07-26T09:16:23.507Z,8.60
2018-07-26T09:17:23.538Z,10.50
2018-07-26T09:18:23.433Z,6.30
2018-07-26T09:19:23.398Z,7.90
2018-07-26T09:20:23.418Z,8.50
2018-07-26T09:21:23.328Z,9.10
2018-07-26T09:22:23.290Z,8.30
2018-07-26T09:23:23.255Z,6.90
2018-07-26T09:24:23.265Z,6.20
2018-07-26T09:25:23.196Z,5.80
2018-07-26T09:26:23.201Z,8.00
2018-07-26T09:27:23.120Z,8.50
2018-07-26T09:28:23.088Z,4.80
2018-07-26T09:29:23.050Z,5.80
2018-07-26T09:30:23.015Z,8.90
2018-07-26T09:31:22.980Z,8.20
2018-07-26T09:32:22.945Z,8.30
2018-07-26T09:33:22.984Z,6.30
2018-07-26T09:34:22.880Z,11.60
2018-07-26T09:35:22.930Z,6.90
2018-07-26T09:36:22.805Z,5.70
2018-07-26T09:37:22.774Z,12.70
2018-07-26T09:38:22.744Z,9.60
2018-07-26T09:39:22.702Z,10.50
2018-07-26T09:40:22.670Z,11.00
2018-07-26T09:41:22.633Z,8.50
2018-07-26T09:42:22.600Z,8.20
2018-07-26T09:43:22.571Z,11.60
2018-07-26T09:44:22.528Z,12.50
2018-07-26T09:45:22.494Z,7.50
2018-07-26T09:46:22.462Z,8.60
2018-07-26T09:47:22.670Z,10.30
2018-07-26T09:48:22.392Z,11.10
2018-07-26T09:49:22.358Z,11.70
2018-07-26T09:50:22.325Z,14.30
2018-07-26T09:51:22.289Z,9.20
2018-07-26T09:52:22.258Z,10.20
2018-07-26T09:53:22.228Z,11.50
2018-07-26T09:54:22.187Z,11.30
2018-07-26T09:55:22.156Z,11.60
2018-07-26T09:56:22.124Z,7.20
2018-07-26T09:57:22.087Z,8.20
2018-07-26T09:58:22.052Z,3.90
2018-07-26T09:59:22.015Z,9.10
2018-07-26T10:00:21.992Z,7.80
2018-07-26T10:01:21.942Z,9.00
2018-07-26T10:02:21.909Z,5.30
2018-07-26T10:03:22.074Z,7.60
2018-07-26T10:04:21.841Z,8.00
2018-07-26T10:05:21.808Z,4.10
2018-07-26T10:06:21.775Z,7.90
2018-07-26T10:07:21.738Z,10.80
2018-07-26T10:08:21.702Z,7.60
2018-07-26T10:09:21.868Z,6.40
2018-07-26T10:10:21.637Z,6.70
2018-07-26T10:11:21.608Z,8.10
2018-07-26T10:12:21.567Z,8.70
2018-07-26T10:13:21.532Z,10.50
2018-07-26T10:14:21.500Z,5.30
2018-07-26T10:15:21.463Z,5.80
2018-07-26T10:16:21.428Z,9.90
2018-07-26T10:17:21.393Z,6.80
2018-07-26T10:18:21.361Z,7.40
2018-07-26T10:19:21.327Z,6.70
2018-07-26T10:20:21.293Z,4.80
2018-07-26T10:21:21.254Z,12.90
2018-07-26T10:22:21.222Z,9.20
2018-07-26T10:23:21.185Z,6.70
2018-07-26T10:24:21.152Z,8.20
2018-07-26T10:25:21.119Z,6.60
2018-07-26T10:26:21.084Z,11.80
2018-07-26T10:27:21.051Z,6.30
2018-07-26T10:28:21.017Z,9.50
2018-07-26T10:29:20.984Z,5.80
2018-07-26T10:30:21.300Z,11.50
2018-07-26T10:31:20.911Z,10.30
2018-07-26T10:32:20.879Z,10.20
2018-07-26T10:33:20.855Z,11.50
2018-07-26T10:34:20.838Z,7.10
2018-07-26T10:35:20.776Z,8.10
2018-07-26T10:36:20.950Z,5.30
2018-07-26T10:37:20.711Z,8.50
2018-07-26T10:38:20.692Z,8.80
2018-07-26T10:39:20.642Z,11.10
2018-07-26T10:40:20.605Z,9.50
2018-07-26T10:41:20.580Z,5.80
2018-07-26T10:42:20.545Z,5.90
2018-07-26T10:43:20.504Z,11.80
2018-07-26T10:44:20.477Z,16.80
2018-07-26T10:45:20.443Z,20.60
2018-07-26T10:46:20.407Z,12.70
2018-07-26T10:47:20.382Z,14.30
2018-07-26T10:48:20.336Z,7.50
2018-07-26T10:49:20.305Z,6.50
2018-07-26T10:50:20.269Z,10.10
2018-07-26T10:51:20.235Z,6.10
2018-07-26T10:52:20.205Z,15.10
2018-07-26T10:53:20.168Z,14.10
2018-07-26T10:54:20.136Z,7.80
2018-07-26T10:55:20.111Z,8.20
2018-07-26T10:56:20.073Z,14.10
2018-07-26T10:57:20.385Z,11.10
2018-07-26T10:58:20.002Z,9.90
2018-07-26T10:59:19.974Z,11.10
2018-07-26T11:00:19.973Z,12.00
2018-07-26T11:01:19.901Z,4.50
2018-07-26T11:02:19.888Z,9.40
2018-07-26T11:03:19.838Z,11.40
2018-07-26T11:04:19.825Z,9.10
2018-07-26T11:05:19.768Z,6.50
2018-07-26T11:06:19.766Z,11.90
2018-07-26T11:07:19.714Z,4.10
2018-07-26T11:08:19.669Z,5.70
2018-07-26T11:09:19.635Z,4.20
2018-07-26T11:10:19.652Z,6.80
2018-07-26T11:11:19.567Z,8.90
2018-07-26T11:12:19.540Z,7.40
2018-07-26T11:13:19.853Z,4.30
2018-07-26T11:14:19.474Z,7.50
2018-07-26T11:15:19.505Z,5.20
2018-07-26T11:16:19.412Z,5.30
2018-07-26T11:17:19.376Z,7.10
2018-07-26T11:18:19.688Z,4.20
2018-07-26T11:19:19.305Z,8.00
2018-07-26T11:20:19.275Z,5.30
2018-07-26T11:21:19.248Z,5.30
2018-07-26T11:22:19.211Z,6.40
2018-07-26T11:23:19.186Z,4.90
2018-07-26T11:24:19.202Z,8.40
2018-07-26T11:25:19.108Z,4.30
2018-07-26T11:26:19.078Z,5.30
2018-07-26T11:27:19.053Z,5.20
2018-07-26T11:28:19.020Z,7.90
2018-07-26T11:29:19.183Z,5.60
2018-07-26T11:30:18.945Z,11.10
2018-07-26T11:31:18.913Z,3.40
2018-07-26T11:32:18.942Z,3.90
2018-07-26T11:33:18.847Z,9.20
2018-07-26T11:34:18.821Z,5.70
2018-07-26T11:35:19.182Z,6.50
2018-07-26T11:36:18.750Z,7.30
2018-07-26T11:37:18.717Z,5.00
2018-07-26T11:38:18.688Z,4.80
2018-07-26T11:39:18.653Z,6.20
2018-07-26T11:40:18.626Z,6.20
2018-07-26T11:41:18.859Z,6.90
2018-07-26T11:42:18.564Z,7.00
2018-07-26T11:43:18.529Z,4.40
2018-07-26T11:44:18.507Z,10.40
2018-07-26T11:45:18.471Z,7.50
2018-07-26T11:46:18.845Z,8.70
2018-07-26T11:47:18.398Z,11.20
2018-07-26T11:48:18.369Z,8.60
2018-07-26T11:49:18.346Z,6.90
2018-07-26T11:50:18.319Z,11.40
2018-07-26T11:51:18.514Z,6.30
2018-07-26T11:52:18.251Z,5.10
2018-07-26T11:53:18.214Z,7.50
2018-07-26T11:54:18.198Z,6.30
2018-07-26T11:55:18.153Z,30.80
2018-07-26T11:56:18.124Z,17.80
2018-07-26T11:57:18.087Z,15.40
2018-07-26T11:58:18.049Z,18.60
2018-07-26T11:59:18.025Z,15.30
2018-07-26T12:00:18.009Z,17.40
2018-07-26T12:01:17.976Z,13.70
2018-07-26T12:02:17.973Z,10.00
2018-07-26T12:03:17.891Z,24.00
2018-07-26T12:04:17.860Z,21.20
2018-07-26T12:05:17.835Z,22.80
2018-07-26T12:06:17.804Z,18.80
2018-07-26T12:07:17.767Z,25.90
2018-07-26T12:08:17.800Z,21.30
2018-07-26T12:09:17.702Z,9.90
2018-07-26T12:10:17.729Z,11.90
2018-07-26T12:12:17.617Z,16.60
2018-07-26T12:13:17.577Z,12.00
2018-07-26T12:14:17.550Z,17.70
2018-07-26T12:15:17.515Z,21.50
2018-07-26T12:16:17.487Z,14.80
2018-07-26T12:17:17.453Z,7.40
2018-07-26T12:18:17.422Z,11.80
2018-07-26T12:19:17.393Z,7.10
2018-07-26T12:20:17.366Z,13.00
2018-07-26T12:21:17.332Z,34.30
2018-07-26T12:22:17.301Z,39.10
2018-07-26T12:23:17.281Z,26.00
2018-07-26T12:24:17.243Z,19.80
2018-07-26T12:25:17.221Z,18.90
2018-07-26T12:26:17.193Z,21.20
2018-07-26T12:27:17.154Z,24.50
2018-07-26T12:28:17.115Z,17.60
2018-07-26T12:29:17.108Z,24.80
2018-07-26T12:30:17.059Z,38.00
2018-07-26T12:31:17.048Z,8.90
2018-07-26T12:32:17.207Z,14.20
2018-07-26T12:34:17.155Z,13.70
2018-07-26T12:35:16.966Z,8.90
2018-07-26T12:36:16.871Z,12.90
2018-07-26T12:37:16.841Z,10.60
2018-07-26T12:38:16.827Z,9.00
2018-07-26T12:39:16.791Z,18.00
2018-07-26T12:40:16.751Z,19.50
2018-07-26T12:41:16.728Z,12.80
2018-07-26T12:42:16.818Z,10.50
2018-07-26T12:43:16.662Z,10.80
2018-07-26T12:44:16.632Z,19.30
2018-07-26T12:45:16.607Z,16.90
2018-07-26T12:46:16.572Z,9.60
2018-07-26T12:47:16.542Z,15.50
2018-07-26T12:48:16.517Z,7.90
2018-07-26T12:49:16.833Z,11.60
2018-07-26T12:50:16.450Z,8.90
2018-07-26T12:51:16.428Z,14.80
2018-07-26T12:52:16.617Z,6.20
2018-07-26T12:53:16.363Z,12.40
2018-07-26T12:54:16.679Z,14.40
2018-07-26T12:55:16.300Z,8.10
2018-07-26T12:56:16.268Z,11.00
2018-07-26T12:57:16.240Z,12.10
2018-07-26T12:58:16.212Z,11.20
2018-07-26T12:59:16.182Z,7.00
2018-07-26T13:00:16.158Z,12.00
2018-07-26T13:01:16.123Z,14.50
2018-07-26T13:02:16.090Z,20.40
2018-07-26T13:03:16.087Z,7.10
2018-07-26T13:04:16.035Z,9.30
2018-07-26T13:05:16.199Z,13.60
2018-07-26T13:06:15.970Z,6.80
2018-07-26T13:07:16.011Z,15.90